createdAt,value
2022-11-03T00:00:25.594Z,1002.61
2022-11-03T00:01:25.591Z,1002.64
2022-11-03T00:02:25.567Z,1002.64
2022-11-03T00:03:25.534Z,1002.60
2022-11-03T00:04:25.523Z,1002.59
2022-11-03T00:05:25.514Z,1002.44
2022-11-03T00:06:25.515Z,1002.41
2022-11-03T00:07:25.489Z,1002.42
2022-11-03T00:08:25.475Z,1002.45
2022-11-03T00:09:25.467Z,1002.41
2022-11-03T00:10:25.445Z,1002.50
2022-11-03T00:11:25.464Z,1002.47
2022-11-03T00:12:25.425Z,1002.45
2022-11-03T00:13:25.423Z,1002.48
2022-11-03T00:14:25.405Z,1002.41
2022-11-03T00:15:25.403Z,1002.38
2022-11-03T00:16:25.382Z,1002.42
2022-11-03T00:17:25.386Z,1002.41
2022-11-03T00:18:25.354Z,1002.39
2022-11-03T00:19:25.344Z,1002.38
2022-11-03T00:20:25.334Z,1002.41
2022-11-03T00:21:25.325Z,1002.35
2022-11-03T00:22:25.354Z,1002.36
2022-11-03T00:23:25.303Z,1002.36
2022-11-03T00:24:25.284Z,1002.39
2022-11-03T00:25:25.276Z,1002.37
2022-11-03T00:26:25.264Z,1002.40
2022-11-03T00:27:25.253Z,1002.34
2022-11-03T00:28:25.256Z,1002.37
2022-11-03T00:29:25.237Z,1002.31
2022-11-03T00:30:25.215Z,1002.25
2022-11-03T00:31:25.205Z,1002.29
2022-11-03T00:32:25.193Z,1002.26
2022-11-03T00:33:25.204Z,1002.26
2022-11-03T00:34:25.164Z,1002.26
2022-11-03T00:35:25.162Z,1002.25
2022-11-03T00:36:25.144Z,1002.24
2022-11-03T00:37:25.133Z,1002.19
2022-11-03T00:38:25.123Z,1002.22
2022-11-03T00:39:25.142Z,1002.21
2022-11-03T00:40:25.094Z,1002.23
2022-11-03T00:41:25.096Z,1002.15
2022-11-03T00:42:25.074Z,1002.17
2022-11-03T00:43:25.064Z,1002.16
2022-11-03T00:44:25.055Z,1002.19
2022-11-03T00:45:25.054Z,1002.13
2022-11-03T00:46:25.024Z,1002.14
2022-11-03T00:47:25.014Z,1002.18
2022-11-03T00:48:25.003Z,1002.16
2022-11-03T00:49:24.993Z,1002.12
2022-11-03T00:50:24.994Z,1002.09
2022-11-03T00:51:24.972Z,1002.14
2022-11-03T00:52:24.953Z,1002.04
2022-11-03T00:53:24.942Z,1002.06
2022-11-03T00:54:24.931Z,1002.05
2022-11-03T00:55:24.923Z,1002.05
2022-11-03T00:56:24.932Z,1002.04
2022-11-03T00:57:24.908Z,1001.93
2022-11-03T00:58:24.882Z,1001.96
2022-11-03T00:59:24.873Z,1001.96
2022-11-03T01:00:24.872Z,1001.95
2022-11-03T01:01:24.971Z,1001.99
2022-11-03T01:02:24.910Z,1001.96
2022-11-03T01:03:24.825Z,1001.97
2022-11-03T01:04:24.813Z,1001.93
2022-11-03T01:05:24.804Z,1001.92
2022-11-03T01:06:24.792Z,1001.95
2022-11-03T01:07:24.803Z,1001.96
2022-11-03T01:08:27.545Z,1001.98
2022-11-03T01:09:24.761Z,1001.98
2022-11-03T01:10:24.742Z,1002.01
2022-11-03T01:11:24.733Z,1002.05
2022-11-03T01:12:24.737Z,1001.98
2022-11-03T01:13:24.742Z,1001.96
2022-11-03T01:14:24.702Z,1001.94
2022-11-03T01:15:24.693Z,1001.90
2022-11-03T01:16:24.673Z,1001.87
2022-11-03T01:17:24.663Z,1001.83
2022-11-03T01:18:24.652Z,1001.81
2022-11-03T01:19:24.662Z,1001.79
2022-11-03T01:20:24.623Z,1001.78
2022-11-03T01:21:24.622Z,1001.81
2022-11-03T01:22:24.654Z,1001.80
2022-11-03T01:23:24.615Z,1001.79
2022-11-03T01:24:24.626Z,1001.72
2022-11-03T01:25:24.600Z,1001.75
2022-11-03T01:26:24.583Z,1001.66
2022-11-03T01:27:24.570Z,1001.73
2022-11-03T01:28:24.580Z,1001.67
2022-11-03T01:29:24.521Z,1001.71
2022-11-03T01:30:24.502Z,1001.68
2022-11-03T01:31:24.522Z,1001.72
2022-11-03T01:32:24.484Z,1001.71
2022-11-03T01:33:24.472Z,1001.73
2022-11-03T01:34:24.466Z,1001.65
2022-11-03T01:35:24.452Z,1001.68
2022-11-03T01:36:24.432Z,1001.69
2022-11-03T01:37:24.452Z,1001.70
2022-11-03T01:38:24.412Z,1001.69
2022-11-03T01:39:24.413Z,1001.72
2022-11-03T01:40:24.392Z,1001.64
2022-11-03T01:41:24.382Z,1001.69
2022-11-03T01:42:24.361Z,1001.54
2022-11-03T01:43:24.371Z,1001.59
2022-11-03T01:44:24.344Z,1001.54
2022-11-03T01:45:24.353Z,1001.53
2022-11-03T01:46:24.322Z,1001.50
2022-11-03T01:47:24.315Z,1001.50
2022-11-03T01:48:24.334Z,1001.50
2022-11-03T01:49:24.304Z,1001.46
2022-11-03T01:50:24.284Z,1001.52
2022-11-03T01:51:24.271Z,1001.50
2022-11-03T01:52:24.267Z,1001.45
2022-11-03T01:53:24.241Z,1001.46
2022-11-03T01:54:24.262Z,1001.41
2022-11-03T01:55:24.222Z,1001.39
2022-11-03T01:56:24.208Z,1001.34
2022-11-03T01:57:24.200Z,1001.37
2022-11-03T01:58:24.183Z,1001.35
2022-11-03T01:59:24.180Z,1001.37
2022-11-03T02:00:24.181Z,1001.35
2022-11-03T02:01:24.224Z,1001.29
2022-11-03T02:02:24.178Z,1001.31
2022-11-03T02:03:24.132Z,1001.25
2022-11-03T02:04:24.113Z,1001.29
2022-11-03T02:05:24.110Z,1001.22
2022-11-03T02:06:24.111Z,1001.28
2022-11-03T02:07:24.100Z,1001.15
2022-11-03T02:08:24.072Z,1001.17
2022-11-03T02:09:24.061Z,1001.17
2022-11-03T02:10:24.050Z,1001.14
2022-11-03T02:11:24.061Z,1001.16
2022-11-03T02:12:24.021Z,1001.15
2022-11-03T02:13:24.019Z,1001.18
2022-11-03T02:14:24.001Z,1001.08
2022-11-03T02:15:23.991Z,1001.14
2022-11-03T02:16:23.979Z,1001.12
2022-11-03T02:17:23.990Z,1001.10
2022-11-03T02:18:23.951Z,1001.05
2022-11-03T02:19:23.941Z,1001.04
2022-11-03T02:20:23.932Z,1001.07
2022-11-03T02:21:23.922Z,1001.10
2022-11-03T02:22:23.910Z,1001.04
2022-11-03T02:23:23.913Z,1001.06
2022-11-03T02:24:23.892Z,1000.99
2022-11-03T02:25:23.880Z,1000.95
2022-11-03T02:26:23.861Z,1000.98
2022-11-03T02:27:23.850Z,1000.94
2022-11-03T02:28:23.881Z,1000.92
2022-11-03T02:29:23.831Z,1000.85
2022-11-03T02:30:23.818Z,1000.84
2022-11-03T02:31:23.825Z,1000.89
2022-11-03T02:32:23.790Z,1000.90
2022-11-03T02:33:23.788Z,1000.85
2022-11-03T02:34:23.790Z,1000.88
2022-11-03T02:35:23.761Z,1000.86
2022-11-03T02:36:23.750Z,1000.87
2022-11-03T02:37:23.740Z,1000.85
2022-11-03T02:38:23.721Z,1000.83
2022-11-03T02:39:23.710Z,1000.77
2022-11-03T02:40:23.723Z,1000.80
2022-11-03T02:41:23.691Z,1000.78
2022-11-03T02:42:23.670Z,1000.79
2022-11-03T02:43:23.669Z,1000.75
2022-11-03T02:44:23.652Z,1000.72
2022-11-03T02:45:23.640Z,1000.74
2022-11-03T02:46:23.651Z,1000.74
2022-11-03T02:47:23.621Z,1000.71
2022-11-03T02:48:23.608Z,1000.72
2022-11-03T02:49:23.599Z,1000.71
2022-11-03T02:50:23.580Z,1000.70
2022-11-03T02:51:23.589Z,1000.62
2022-11-03T02:52:23.580Z,1000.62
2022-11-03T02:53:23.552Z,1000.72
2022-11-03T02:54:23.530Z,1000.75
2022-11-03T02:55:23.529Z,1000.71
2022-11-03T02:56:23.510Z,1000.77
2022-11-03T02:57:23.500Z,1000.77
2022-11-03T02:58:23.525Z,1000.72
2022-11-03T02:59:23.481Z,1000.72
2022-11-03T03:00:23.485Z,1000.68
2022-11-03T03:01:23.644Z,1000.69
2022-11-03T03:02:23.472Z,1000.66
2022-11-03T03:03:23.430Z,1000.64
2022-11-03T03:04:23.429Z,1000.64
2022-11-03T03:05:23.440Z,1000.69
2022-11-03T03:06:23.391Z,1000.66
2022-11-03T03:07:23.388Z,1000.64
2022-11-03T03:08:23.369Z,1000.59
2022-11-03T03:09:23.359Z,1000.58
2022-11-03T03:10:23.367Z,1000.54
2022-11-03T03:11:23.421Z,1000.57
2022-11-03T03:12:23.319Z,1000.56
2022-11-03T03:13:23.309Z,1000.55
2022-11-03T03:14:23.300Z,1000.55
2022-11-03T03:15:23.289Z,1000.49
2022-11-03T03:16:23.290Z,1000.52
2022-11-03T03:17:23.270Z,1000.52
2022-11-03T03:18:23.250Z,1000.56
2022-11-03T03:19:23.241Z,1000.51
2022-11-03T03:20:23.228Z,1000.52
2022-11-03T03:21:23.238Z,1000.52
2022-11-03T03:22:23.209Z,1000.48
2022-11-03T03:23:23.198Z,1000.50
2022-11-03T03:24:23.189Z,1000.40
2022-11-03T03:25:23.178Z,1000.40
2022-11-03T03:26:23.158Z,1000.36
2022-11-03T03:27:23.178Z,1000.34
2022-11-03T03:28:23.139Z,1000.32
2022-11-03T03:29:23.131Z,1000.24
2022-11-03T03:30:23.117Z,1000.25
2022-11-03T03:31:23.149Z,1000.25
2022-11-03T03:32:23.089Z,1000.17
2022-11-03T03:33:23.161Z,1000.20
2022-11-03T03:34:34.427Z,1000.18
2022-11-03T03:35:24.062Z,1000.25
2022-11-03T03:36:23.059Z,1000.17
2022-11-03T03:37:23.039Z,1000.20
2022-11-03T03:38:23.029Z,1000.16
2022-11-03T03:39:23.038Z,1000.18
2022-11-03T03:40:23.008Z,1000.19
2022-11-03T03:41:22.993Z,1000.15
2022-11-03T03:42:22.978Z,1000.21
2022-11-03T03:43:22.968Z,1000.23
2022-11-03T03:44:22.959Z,1000.20
2022-11-03T03:45:22.968Z,1000.18
2022-11-03T03:46:22.940Z,1000.17
2022-11-03T03:47:22.939Z,1000.16
2022-11-03T03:48:22.915Z,1000.14
2022-11-03T03:49:22.898Z,1000.19
2022-11-03T03:50:22.909Z,1000.15
2022-11-03T03:51:22.881Z,1000.06
2022-11-03T03:52:22.868Z,1000.06
2022-11-03T03:53:22.858Z,1000.13
2022-11-03T03:54:22.848Z,1000.09
2022-11-03T03:56:22.838Z,1000.06
2022-11-03T03:57:22.807Z,1000.09
2022-11-03T03:58:22.796Z,1000.07
2022-11-03T03:59:22.781Z,1000.04
2022-11-03T04:00:22.776Z,1000.02
2022-11-03T04:01:22.904Z,1000.03
2022-11-03T04:02:22.852Z,1000.06
2022-11-03T04:03:22.738Z,1000.09
2022-11-03T04:04:22.730Z,1000.05
2022-11-03T04:05:22.716Z,1000.12
2022-11-03T04:06:22.707Z,1000.06
2022-11-03T04:07:22.689Z,1000.04
2022-11-03T04:08:22.707Z,1000.05
2022-11-03T04:09:22.667Z,999.99
2022-11-03T04:10:22.659Z,999.99
2022-11-03T04:11:22.644Z,999.99
2022-11-03T04:12:22.637Z,1000.00
2022-11-03T04:13:22.619Z,1000.02
2022-11-03T04:14:22.636Z,1000.03
2022-11-03T04:15:22.598Z,999.97
2022-11-03T04:16:22.588Z,999.94
2022-11-03T04:17:22.575Z,999.91
2022-11-03T04:18:22.557Z,999.97
2022-11-03T04:19:22.553Z,999.92
2022-11-03T04:20:22.564Z,999.91
2022-11-03T04:21:22.526Z,999.87
2022-11-03T04:22:22.515Z,999.88
2022-11-03T04:23:22.506Z,999.89
2022-11-03T04:24:22.496Z,999.83
2022-11-03T04:25:22.476Z,999.79
2022-11-03T04:26:22.495Z,999.80
2022-11-03T04:27:22.456Z,999.70
2022-11-03T04:28:22.446Z,999.73
2022-11-03T04:29:22.436Z,999.68
2022-11-03T04:30:22.426Z,999.74
2022-11-03T04:31:22.406Z,999.73
2022-11-03T04:32:22.447Z,999.69
2022-11-03T04:33:22.386Z,999.65
2022-11-03T04:34:22.377Z,999.67
2022-11-03T04:35:22.363Z,999.66
2022-11-03T04:36:22.356Z,999.64
2022-11-03T04:37:22.336Z,999.61
2022-11-03T04:38:22.354Z,999.62
2022-11-03T04:39:22.316Z,999.57
2022-11-03T04:40:22.305Z,999.56
2022-11-03T04:41:22.299Z,999.52
2022-11-03T04:42:22.284Z,999.53
2022-11-03T04:43:22.268Z,999.54
2022-11-03T04:44:22.285Z,999.53
2022-11-03T04:45:22.259Z,999.55
2022-11-03T04:46:22.236Z,999.54
2022-11-03T04:47:22.224Z,999.54
2022-11-03T04:48:22.215Z,999.53
2022-11-03T04:49:22.200Z,999.52
2022-11-03T04:50:22.206Z,999.55
2022-11-03T04:51:22.175Z,999.58
2022-11-03T04:52:22.169Z,999.53
2022-11-03T04:53:22.145Z,999.52
2022-11-03T04:54:22.145Z,999.52
2022-11-03T04:55:22.145Z,999.55
2022-11-03T04:56:22.120Z,999.52
2022-11-03T04:57:22.104Z,999.51
2022-11-03T04:58:22.101Z,999.56
2022-11-03T04:59:22.085Z,999.54
2022-11-03T05:00:22.073Z,999.62
2022-11-03T05:01:24.280Z,999.56
2022-11-03T05:02:22.054Z,999.50
2022-11-03T05:03:22.033Z,999.49
2022-11-03T05:04:22.026Z,999.49
2022-11-03T05:05:22.004Z,999.44
2022-11-03T05:06:22.008Z,999.36
2022-11-03T05:07:22.233Z,999.34
2022-11-03T05:08:21.976Z,999.37
2022-11-03T05:09:21.964Z,999.38
2022-11-03T05:10:21.954Z,999.40
2022-11-03T05:11:21.935Z,999.33
2022-11-03T05:12:21.933Z,999.26
2022-11-03T05:13:21.935Z,999.29
2022-11-03T05:14:21.905Z,999.28
2022-11-03T05:15:21.893Z,999.25
2022-11-03T05:16:21.884Z,999.22
2022-11-03T05:17:21.873Z,999.16
2022-11-03T05:18:21.893Z,999.18
2022-11-03T05:19:21.845Z,999.18
2022-11-03T05:20:21.842Z,999.22
2022-11-03T05:21:21.823Z,999.14
2022-11-03T05:22:21.813Z,999.15
2022-11-03T05:23:21.803Z,999.16
2022-11-03T05:24:21.812Z,999.12
2022-11-03T05:25:21.777Z,999.14
2022-11-03T05:26:21.764Z,999.23
2022-11-03T05:27:21.755Z,999.19
2022-11-03T05:28:21.744Z,999.11
2022-11-03T05:29:21.732Z,999.13
2022-11-03T05:30:21.751Z,999.12
2022-11-03T05:31:21.704Z,999.09
2022-11-03T05:32:21.697Z,999.11
2022-11-03T05:33:21.689Z,999.12
2022-11-03T05:34:21.675Z,999.06
2022-11-03T05:35:21.664Z,999.11
2022-11-03T05:36:21.693Z,999.07
2022-11-03T05:37:26.041Z,999.00
2022-11-03T05:38:22.633Z,998.98
2022-11-03T05:39:21.612Z,998.95
2022-11-03T05:40:21.602Z,998.96
2022-11-03T05:41:21.595Z,998.93
2022-11-03T05:42:21.602Z,998.92
2022-11-03T05:43:21.572Z,999.01
2022-11-03T05:44:21.562Z,998.96
2022-11-03T05:45:21.543Z,998.90
2022-11-03T05:46:21.534Z,998.89
2022-11-03T05:47:21.526Z,998.91
2022-11-03T05:48:21.533Z,998.93
2022-11-03T05:49:21.505Z,998.93
2022-11-03T05:50:21.501Z,998.90
2022-11-03T05:51:21.475Z,998.89
2022-11-03T05:52:21.472Z,998.88
2022-11-03T05:53:21.474Z,998.89
2022-11-03T05:54:21.443Z,998.89
2022-11-03T05:55:21.432Z,998.89
2022-11-03T05:56:21.425Z,998.87
2022-11-03T05:57:21.404Z,998.86
2022-11-03T05:58:21.401Z,998.82
2022-11-03T05:59:21.415Z,998.79
2022-11-03T06:00:21.391Z,998.78
2022-11-03T06:01:21.390Z,998.74
2022-11-03T06:02:21.411Z,998.74
2022-11-03T06:03:21.389Z,998.76
2022-11-03T06:04:21.332Z,998.72
2022-11-03T06:05:21.431Z,998.78
2022-11-03T06:06:21.312Z,998.66
2022-11-03T06:07:21.300Z,998.69
2022-11-03T06:08:21.343Z,998.72
2022-11-03T06:09:21.271Z,998.65
2022-11-03T06:10:21.271Z,998.67
2022-11-03T06:11:21.271Z,998.65
2022-11-03T06:12:21.242Z,998.64
2022-11-03T06:13:21.231Z,998.62
2022-11-03T06:14:24.019Z,998.67
2022-11-03T06:15:21.210Z,998.72
2022-11-03T06:16:21.197Z,998.70
2022-11-03T06:17:21.199Z,998.70
2022-11-03T06:18:21.181Z,998.69
2022-11-03T06:19:21.163Z,998.68
2022-11-03T06:20:21.150Z,998.62
2022-11-03T06:21:21.132Z,998.62
2022-11-03T06:22:21.141Z,998.64
2022-11-03T06:23:21.111Z,998.63
2022-11-03T06:24:21.102Z,998.59
2022-11-03T06:25:21.088Z,998.62
2022-11-03T06:26:21.080Z,998.59
2022-11-03T06:27:21.069Z,998.58
2022-11-03T06:28:21.090Z,998.61
2022-11-03T06:29:21.040Z,998.58
2022-11-03T06:30:21.030Z,998.60
2022-11-03T06:31:23.125Z,998.66
2022-11-03T06:32:21.011Z,998.58
2022-11-03T06:33:21.003Z,998.60
2022-11-03T06:34:21.001Z,998.55
2022-11-03T06:35:20.972Z,998.54
2022-11-03T06:36:20.960Z,998.59
2022-11-03T06:37:20.951Z,998.58
2022-11-03T06:38:20.938Z,998.56
2022-11-03T06:39:20.973Z,998.58
2022-11-03T06:40:20.920Z,998.60
2022-11-03T06:41:20.900Z,998.64
2022-11-03T06:42:20.890Z,998.59
2022-11-03T06:43:20.881Z,998.63
2022-11-03T06:44:20.871Z,998.61
2022-11-03T06:45:20.869Z,998.67
2022-11-03T06:46:20.849Z,998.55
2022-11-03T06:47:20.830Z,998.54
2022-11-03T06:48:20.820Z,998.53
2022-11-03T06:49:20.816Z,998.50
2022-11-03T06:50:20.799Z,998.53
2022-11-03T06:51:20.812Z,998.53
2022-11-03T06:52:20.779Z,998.54
2022-11-03T06:53:20.760Z,998.54
2022-11-03T06:54:20.750Z,998.48
2022-11-03T06:55:20.746Z,998.52
2022-11-03T06:56:20.728Z,998.47
2022-11-03T06:57:20.738Z,998.40
2022-11-03T06:58:20.708Z,998.45
2022-11-03T06:59:20.693Z,998.40
2022-11-03T07:00:33.457Z,998.39
2022-11-03T07:01:21.771Z,998.37
2022-11-03T07:02:20.807Z,998.39
2022-11-03T07:03:20.667Z,998.40
2022-11-03T07:04:20.670Z,998.40
2022-11-03T07:05:20.620Z,998.48
2022-11-03T07:06:20.619Z,998.49
2022-11-03T07:07:20.599Z,998.46
2022-11-03T07:08:20.597Z,998.49
2022-11-03T07:09:20.600Z,998.49
2022-11-03T07:10:20.578Z,998.45
2022-11-03T07:11:20.557Z,998.30
2022-11-03T07:12:20.546Z,998.30
2022-11-03T07:13:20.528Z,998.32
2022-11-03T07:14:20.518Z,998.28
2022-11-03T07:15:20.536Z,998.23
2022-11-03T07:16:20.500Z,998.23
2022-11-03T07:17:20.479Z,998.17
2022-11-03T07:18:20.478Z,998.16
2022-11-03T07:19:20.459Z,998.17
2022-11-03T07:20:20.448Z,998.13
2022-11-03T07:21:20.448Z,998.12
2022-11-03T07:22:20.426Z,998.14
2022-11-03T07:23:20.416Z,998.10
2022-11-03T07:24:20.412Z,998.07
2022-11-03T07:25:20.389Z,998.10
2022-11-03T07:26:20.420Z,998.08
2022-11-03T07:27:20.368Z,998.09
2022-11-03T07:28:20.362Z,998.11
2022-11-03T07:29:20.349Z,998.02
2022-11-03T07:30:20.343Z,998.00
2022-11-03T07:31:20.318Z,997.98
2022-11-03T07:32:20.344Z,998.02
2022-11-03T07:33:20.299Z,998.02
2022-11-03T07:34:20.296Z,997.97
2022-11-03T07:35:20.277Z,998.00
2022-11-03T07:36:20.268Z,997.96
2022-11-03T07:37:20.267Z,997.93
2022-11-03T07:38:20.247Z,997.87
2022-11-03T07:39:20.239Z,997.90
2022-11-03T07:40:20.240Z,997.88
2022-11-03T07:41:20.207Z,997.87
2022-11-03T07:42:20.254Z,997.94
2022-11-03T07:43:20.197Z,997.95
2022-11-03T07:44:20.177Z,997.88
2022-11-03T07:45:20.176Z,997.88
2022-11-03T07:46:20.157Z,997.82
2022-11-03T07:47:20.140Z,997.81
2022-11-03T07:48:20.157Z,997.80
2022-11-03T07:49:20.120Z,997.71
2022-11-03T07:50:20.111Z,997.80
2022-11-03T07:51:20.105Z,997.67
2022-11-03T07:52:20.086Z,997.72
2022-11-03T07:53:25.700Z,997.64
2022-11-03T07:54:21.085Z,997.67
2022-11-03T07:55:20.057Z,997.58
2022-11-03T07:56:20.143Z,997.60
2022-11-03T07:57:20.037Z,997.58
2022-11-03T07:58:20.017Z,997.57
2022-11-03T07:59:20.057Z,997.56
2022-11-03T08:00:20.025Z,997.56
2022-11-03T08:01:20.041Z,997.54
2022-11-03T08:02:20.039Z,997.46
2022-11-03T08:03:19.957Z,997.38
2022-11-03T08:04:19.967Z,997.40
2022-11-03T08:06:20.238Z,997.38
2022-11-03T08:07:19.917Z,997.33
2022-11-03T08:08:19.911Z,997.33
2022-11-03T08:09:19.888Z,997.37
2022-11-03T08:10:19.878Z,997.33
2022-11-03T08:11:21.997Z,997.29
2022-11-03T08:12:19.876Z,997.30
2022-11-03T08:13:19.849Z,997.27
2022-11-03T08:14:19.828Z,997.19
2022-11-03T08:15:19.825Z,997.20
2022-11-03T08:16:19.808Z,997.19
2022-11-03T08:17:19.798Z,997.13
2022-11-03T08:18:19.807Z,997.12
2022-11-03T08:19:19.778Z,997.10
2022-11-03T08:20:19.766Z,997.12
2022-11-03T08:21:19.765Z,997.07
2022-11-03T08:22:19.738Z,997.07
2022-11-03T08:23:25.781Z,997.02
2022-11-03T08:24:20.740Z,997.05
2022-11-03T08:25:19.709Z,997.08
2022-11-03T08:26:19.698Z,997.01
2022-11-03T08:27:19.686Z,996.98
2022-11-03T08:28:19.668Z,996.92
2022-11-03T08:29:19.723Z,996.95
2022-11-03T08:30:19.668Z,997.00
2022-11-03T08:31:19.638Z,996.95
2022-11-03T08:32:19.629Z,996.90
2022-11-03T08:33:19.689Z,996.92
2022-11-03T08:34:19.610Z,996.83
2022-11-03T08:35:19.618Z,996.81
2022-11-03T08:36:19.578Z,996.81
2022-11-03T08:37:19.578Z,996.85
2022-11-03T08:38:19.560Z,996.87
2022-11-03T08:39:19.549Z,996.81
2022-11-03T08:40:19.536Z,996.86
2022-11-03T08:41:19.548Z,996.87
2022-11-03T08:42:19.510Z,996.94
2022-11-03T08:43:19.508Z,996.84
2022-11-03T08:44:19.491Z,996.82
2022-11-03T08:45:19.480Z,996.75
2022-11-03T08:46:19.476Z,996.76
2022-11-03T08:47:19.509Z,996.69
2022-11-03T08:48:19.448Z,996.67
2022-11-03T08:49:19.440Z,996.69
2022-11-03T08:50:19.419Z,996.72
2022-11-03T08:51:19.409Z,996.77
2022-11-03T08:52:19.400Z,996.80
2022-11-03T08:53:19.409Z,996.82
2022-11-03T08:54:19.380Z,996.75
2022-11-03T08:55:19.360Z,996.83
2022-11-03T08:56:22.395Z,996.85
2022-11-03T08:57:19.340Z,996.85
2022-11-03T08:58:19.350Z,996.79
2022-11-03T08:59:19.321Z,996.75
2022-11-03T09:00:19.307Z,996.70
2022-11-03T09:01:19.398Z,996.64
2022-11-03T09:02:19.369Z,996.54
2022-11-03T09:03:19.298Z,996.52
2022-11-03T09:04:19.292Z,996.49
2022-11-03T09:05:19.254Z,996.46
2022-11-03T09:06:19.243Z,996.51
2022-11-03T09:07:19.293Z,996.50
2022-11-03T09:10:22.179Z,996.47
2022-11-03T09:11:19.185Z,996.48
2022-11-03T09:12:19.161Z,996.43
2022-11-03T09:13:19.160Z,996.49
2022-11-03T09:14:19.142Z,996.44
2022-11-03T09:15:19.159Z,996.46
2022-11-03T09:16:19.120Z,996.38
2022-11-03T09:17:19.113Z,996.44
2022-11-03T09:18:19.094Z,996.38
2022-11-03T09:19:19.092Z,996.41
2022-11-03T09:20:19.073Z,996.40
2022-11-03T09:21:19.086Z,996.35
2022-11-03T09:22:19.061Z,996.45
2022-11-03T09:23:19.042Z,996.43
2022-11-03T09:24:19.025Z,996.43
2022-11-03T09:25:19.026Z,996.43
2022-11-03T09:26:19.021Z,996.49
2022-11-03T09:27:19.018Z,996.51
2022-11-03T09:28:18.981Z,996.51
2022-11-03T09:29:18.975Z,996.50
2022-11-03T09:30:18.960Z,996.44
2022-11-03T09:31:18.958Z,996.52
2022-11-03T09:32:23.027Z,996.54
2022-11-03T09:33:18.932Z,996.44
2022-11-03T09:34:18.914Z,996.47
2022-11-03T09:35:18.903Z,996.44
2022-11-03T09:36:18.891Z,996.33
2022-11-03T09:37:18.882Z,996.34
2022-11-03T09:38:18.883Z,996.31
2022-11-03T09:39:18.853Z,996.33
2022-11-03T09:40:18.842Z,996.36
2022-11-03T09:41:26.208Z,996.29
2022-11-03T09:42:19.825Z,996.22
2022-11-03T09:43:18.813Z,996.20
2022-11-03T09:44:18.823Z,996.14
2022-11-03T09:45:18.792Z,996.12
2022-11-03T09:46:18.774Z,996.12
2022-11-03T09:47:18.763Z,996.16
2022-11-03T09:48:18.744Z,996.10
2022-11-03T09:49:18.742Z,996.09
2022-11-03T09:50:18.982Z,996.02
2022-11-03T09:51:18.722Z,995.97
2022-11-03T09:52:18.713Z,995.93
2022-11-03T09:53:18.702Z,995.94
2022-11-03T09:54:18.682Z,995.90
2022-11-03T09:55:18.673Z,995.90
2022-11-03T09:56:18.682Z,995.85
2022-11-03T09:57:18.653Z,995.87
2022-11-03T09:58:18.637Z,995.84
2022-11-03T09:59:18.624Z,995.82
2022-11-03T10:00:18.633Z,995.81
2022-11-03T10:01:18.730Z,995.83
2022-11-03T10:02:18.688Z,995.81
2022-11-03T10:03:18.587Z,995.79
2022-11-03T10:04:18.573Z,995.81
2022-11-03T10:05:18.566Z,995.79
2022-11-03T10:06:18.546Z,995.79
2022-11-03T10:07:18.554Z,995.74
2022-11-03T10:08:21.527Z,995.70
2022-11-03T10:09:18.515Z,995.65
2022-11-03T10:10:18.504Z,995.61
2022-11-03T10:11:18.497Z,995.44
2022-11-03T10:12:18.475Z,995.42
2022-11-03T10:13:18.494Z,995.39
2022-11-03T10:14:18.456Z,995.38
2022-11-03T10:15:18.451Z,995.38
2022-11-03T10:16:18.467Z,995.35
2022-11-03T10:17:18.424Z,995.40
2022-11-03T10:18:18.406Z,995.32
2022-11-03T10:19:18.434Z,995.30
2022-11-03T10:20:18.559Z,995.26
2022-11-03T10:21:18.375Z,995.22
2022-11-03T10:22:18.368Z,995.20
2022-11-03T10:23:18.356Z,995.24
2022-11-03T10:24:18.364Z,995.31
2022-11-03T10:25:18.336Z,995.23
2022-11-03T10:26:18.315Z,995.27
2022-11-03T10:27:18.310Z,995.27
2022-11-03T10:28:18.295Z,995.26
2022-11-03T10:30:18.346Z,995.27
2022-11-03T10:31:18.270Z,995.21
2022-11-03T10:32:18.247Z,995.18
2022-11-03T10:33:18.245Z,995.11
2022-11-03T10:34:18.227Z,995.13
2022-11-03T10:35:18.217Z,995.06
2022-11-03T10:36:18.240Z,995.12
2022-11-03T10:37:18.195Z,995.05
2022-11-03T10:38:18.187Z,994.96
2022-11-03T10:39:18.183Z,994.91
2022-11-03T10:40:46.667Z,994.92
2022-11-03T10:41:19.201Z,994.85
2022-11-03T10:42:18.135Z,994.92
2022-11-03T10:43:18.127Z,994.89
2022-11-03T10:44:18.116Z,994.80
2022-11-03T10:45:18.116Z,994.67
2022-11-03T10:46:36.651Z,994.61
2022-11-03T10:47:19.107Z,994.54
2022-11-03T10:48:18.066Z,994.48
2022-11-03T10:49:18.057Z,994.51
2022-11-03T10:50:18.045Z,994.43
2022-11-03T10:51:18.038Z,994.36
2022-11-03T10:52:18.017Z,994.29
2022-11-03T10:53:18.091Z,994.30
2022-11-03T10:54:17.998Z,994.27
2022-11-03T10:55:20.654Z,994.30
2022-11-03T10:56:18.976Z,994.26
2022-11-03T10:57:17.968Z,994.27
2022-11-03T10:58:17.949Z,994.30
2022-11-03T10:59:18.024Z,994.27
2022-11-03T11:00:17.931Z,994.40
2022-11-03T11:01:18.035Z,994.32
2022-11-03T11:02:17.941Z,994.29
2022-11-03T11:03:20.690Z,994.33
2022-11-03T11:04:17.954Z,994.27
2022-11-03T11:05:17.897Z,994.23
2022-11-03T11:06:17.869Z,994.20
2022-11-03T11:07:17.857Z,994.21
2022-11-03T11:08:17.882Z,994.24
2022-11-03T11:09:17.827Z,994.31
2022-11-03T11:10:17.810Z,994.27
2022-11-03T11:11:17.828Z,994.20
2022-11-03T11:12:17.791Z,994.23
2022-11-03T11:13:17.779Z,994.24
2022-11-03T11:14:17.769Z,994.24
2022-11-03T11:15:17.758Z,994.21
2022-11-03T11:16:17.767Z,994.15
2022-11-03T11:17:17.739Z,994.15
2022-11-03T11:18:17.796Z,994.11
2022-11-03T11:19:17.708Z,994.12
2022-11-03T11:20:17.699Z,994.12
2022-11-03T11:21:17.695Z,993.97
2022-11-03T11:22:17.714Z,993.88
2022-11-03T11:23:17.671Z,993.79
2022-11-03T11:24:17.663Z,993.82
2022-11-03T11:25:17.650Z,993.79
2022-11-03T11:26:17.629Z,993.77
2022-11-03T11:27:17.619Z,993.79
2022-11-03T11:28:17.629Z,993.75
2022-11-03T11:29:17.606Z,993.78
2022-11-03T11:30:17.591Z,993.77
2022-11-03T11:31:17.579Z,993.77
2022-11-03T11:32:17.570Z,993.82
2022-11-03T11:33:17.562Z,993.77
2022-11-03T11:34:17.583Z,993.76
2022-11-03T11:35:17.539Z,993.69
2022-11-03T11:36:17.518Z,993.69
2022-11-03T11:37:17.510Z,993.68
2022-11-03T11:38:17.498Z,993.65
2022-11-03T11:39:17.510Z,993.57
2022-11-03T11:40:17.470Z,993.52
2022-11-03T11:41:17.460Z,993.48
2022-11-03T11:42:17.539Z,993.50
2022-11-03T11:43:17.454Z,993.41
2022-11-03T11:44:17.421Z,993.38
2022-11-03T11:45:17.460Z,993.36
2022-11-03T11:46:17.401Z,993.29
2022-11-03T11:47:17.391Z,993.26
2022-11-03T11:48:24.438Z,993.23
2022-11-03T11:49:17.372Z,993.14
2022-11-03T11:50:17.362Z,993.08
2022-11-03T11:51:17.377Z,993.10
2022-11-03T11:52:19.192Z,993.16
2022-11-03T11:53:17.329Z,993.19
2022-11-03T11:54:18.401Z,993.25
2022-11-03T11:55:17.300Z,993.14
2022-11-03T11:56:17.289Z,993.06
2022-11-03T11:57:17.328Z,993.08
2022-11-03T11:58:17.262Z,992.99
2022-11-03T11:59:23.000Z,992.92
2022-11-03T12:00:18.311Z,992.91
2022-11-03T12:01:17.243Z,992.92
2022-11-03T12:02:17.239Z,992.94
2022-11-03T12:03:17.234Z,992.97
2022-11-03T12:05:17.189Z,993.02
2022-11-03T12:06:17.170Z,992.96
2022-11-03T12:07:17.160Z,993.05
2022-11-03T12:08:17.169Z,993.09
2022-11-03T12:09:17.134Z,993.04
2022-11-03T12:10:17.130Z,993.10
2022-11-03T12:11:17.180Z,993.11
2022-11-03T12:12:17.109Z,993.09
2022-11-03T12:13:17.110Z,993.08
2022-11-03T12:14:17.081Z,993.05
2022-11-03T12:15:17.070Z,993.02
2022-11-03T12:16:17.061Z,993.01
2022-11-03T12:17:17.078Z,992.97
2022-11-03T12:18:17.041Z,992.91
2022-11-03T12:19:17.051Z,992.88
2022-11-03T12:20:17.021Z,992.81
2022-11-03T12:21:17.000Z,992.86
2022-11-03T12:22:16.991Z,992.77
2022-11-03T12:23:16.973Z,992.87
2022-11-03T12:24:16.969Z,992.83
2022-11-03T12:25:16.971Z,992.85
2022-11-03T12:26:16.942Z,992.81